Time;durP1;ratioP1;P1;durP2;ratioP2;P2;SDS_P1;SDS_P2;PMS_P1;PMS_P2;Temp;Humidity;BMP_temperature;BMP_pressure;BME280_temperature;BME280_humidity;BME280_pressure;Samples;Min_cycle;Max_cycle;Signal;HPM_P1;HPM_P2
2022/03/09 00:12:57;;;;;;;;;;;;;;;;;;;;;
2022/03/09 00:17:10;;;;;;;11.80;6.78;;;;;;;11.05;40.80;100683.14;1864214;103;26386;-82
2022/03/09 00:20:33;;;;;;;8.15;7.03;;;;;;;11.05;40.84;100684.44;1860595;105;26178;-81
2022/03/09 00:24:08;;;;;;;11.18;7.28;;;;;;;11.02;40.87;100681.75;1873187;103;25834;-80
2022/03/09 00:27:32;;;;;;;11.12;7.58;;;;;;;11.03;40.89;100686.11;1856105;104;25823;-80
2022/03/09 00:30:53;;;;;;;10.58;6.55;;;;;;;11.01;40.92;100682.60;1842009;105;25819;-80
2022/03/09 00:34:13;;;;;;;10.63;6.73;;;;;;;11.01;40.92;100684.33;1889798;101;35330;-81
2022/03/09 00:37:39;;;;;;;10.35;6.92;;;;;;;11.01;40.93;100691.73;2012499;97;25638;-80
2022/03/09 00:41:05;;;;;;;11.48;7.00;;;;;;;11.01;40.99;100692.16;2031507;97;25768;-80
2022/03/09 00:44:25;;;;;;;9.28;6.55;;;;;;;11.00;40.98;100689.06;2061352;94;25780;-81
2022/03/09 00:47:46;;;;;;;9.37;6.57;;;;;;;11.00;41.01;100688.67;2089628;92;29148;-81
2022/03/09 00:51:09;;;;;;;12.87;6.87;;;;;;;10.99;41.02;100681.66;2088513;94;30643;-80
2022/03/09 00:54:41;;;;;;;9.08;6.33;;;;;;;10.99;41.05;100680.78;2069765;94;25694;-81
2022/03/09 00:58:05;;;;;;;10.15;6.58;;;;;;;10.98;41.03;100680.34;2232442;88;25720;-81
2022/03/09 01:01:31;;;;;;;8.18;6.47;;;;;;;10.96;41.06;100682.00;2205309;88;25858;-80
2022/03/09 01:04:51;;;;;;;9.88;7.17;;;;;;;10.96;41.07;100680.27;2153548;91;25757;-81
2022/03/09 01:08:27;;;;;;;8.88;6.80;;;;;;;10.95;41.10;100680.25;2133478;91;25955;-82
2022/03/09 01:12:23;;;;;;;8.43;6.28;;;;;;;10.95;41.08;100673.73;2134927;91;26013;-82
2022/03/09 01:16:31;;;;;;;9.23;6.20;;;;;;;10.94;41.11;100676.77;2084482;91;25924;-81
2022/03/09 01:20:37;;;;;;;;;;;;;;;;;;;;;
2022/03/09 01:24:23;;;;;;;8.13;6.00;;;;;;;10.92;41.15;100667.13;2073709;94;25826;-80
2022/03/09 01:28:01;;;;;;;10.28;6.45;;;;;;;10.91;41.16;100666.24;2023507;96;25705;-80
2022/03/09 01:31:37;;;;;;;;;;;;;;;10.91;41.18;100660.14;2015447;97;25792;-81
2022/03/09 01:35:34;;;;;;;;;;;;;;;;;;;;;
2022/03/09 01:39:37;;;;;;;10.93;6.87;;;;;;;10.87;41.21;100662.67;1991621;97;25391;-79
2022/03/09 01:43:37;;;;;;;11.40;6.53;;;;;;;10.86;41.23;100667.83;1993426;99;25927;-80
2022/03/09 02:18:01;;;;;;;10.35;6.87;;;;;;;10.80;41.35;100647.70;1763088;110;26039;-81
2022/03/09 02:26:38;;;;;;;7.17;6.00;;;;;;;10.78;41.38;100635.03;1790642;103;25974;-80
2022/03/09 02:30:18;;;;;;;9.88;6.97;;;;;;;10.77;41.38;100635.88;1823454;106;25846;-80
2022/03/09 02:33:49;;;;;;;9.13;5.70;;;;;;;10.78;41.40;100635.45;1804943;105;26032;-80
2022/03/09 02:37:13;;;;;;;10.50;7.00;;;;;;;10.76;41.42;100641.91;1880559;103;26897;-81
2022/03/09 02:40:37;;;;;;;7.15;5.67;;;;;;;10.77;41.43;100645.02;1874521;100;25914;-82
2022/03/09 02:43:58;;;;;;;8.58;6.72;;;;;;;10.77;41.45;100650.22;1936996;100;25987;-80
2022/03/09 02:47:22;;;;;;;8.13;6.75;;;;;;;10.77;41.43;100643.70;1970344;99;26014;-82
2022/03/09 02:50:46;;;;;;;8.27;6.23;;;;;;;10.78;41.44;100642.86;1992299;97;27100;-81
2022/03/09 02:54:14;;;;;;;8.23;6.10;;;;;;;10.77;41.44;100648.92;2093379;92;25753;-81
2022/03/09 02:58:08;;;;;;;;;;;;;;;;;;;;;
2022/03/09 03:02:09;;;;;;;;;;;;;;;;;;;;;
2022/03/09 03:06:23;;;;;;;;;;;;;;;;;;;;;
2022/03/09 03:09:57;;;;;;;10.15;6.40;;;;;;;10.77;41.45;100636.31;2071689;92;25955;-81
2022/03/09 03:13:49;;;;;;;10.63;6.70;;;;;;;10.74;41.46;100631.01;2061063;94;25596;-82
2022/03/09 03:18:05;;;;;;;;;;;;;;;;;;;;;
2022/03/09 03:21:41;;;;;;;9.80;5.97;;;;;;;10.75;41.47;100630.16;2062287;94;25746;-81
2022/03/09 03:25:26;;;;;;;8.00;5.85;;;;;;;10.74;41.47;100634.92;2034628;94;26123;-82
2022/03/09 03:28:58;;;;;;;12.18;6.22;;;;;;;10.74;41.49;100628.40;2030521;95;25772;-81
2022/03/09 03:33:03;;;;;;;;;;;;;;;;;;;;;
2022/03/09 03:36:38;;;;;;;8.00;5.75;;;;;;;10.73;41.49;100622.70;2057495;94;25916;-81
2022/03/09 03:40:44;;;;;;;7.10;6.00;;;;;;;10.73;41.50;100629.22;2032642;95;25735;-81
2022/03/09 03:52:43;;;;;;;9.38;5.87;;;;;;;10.70;41.52;100613.09;2034782;95;26409;-81
2022/03/09 03:56:46;;;;;;;5.92;5.25;;;;;;;10.70;41.53;100616.09;1952373;98;25844;-80
2022/03/09 04:00:43;;;;;;;;;;;;;;;;;;;;;
2022/03/09 04:04:33;;;;;;;7.22;5.33;;;;;;;10.69;41.54;100611.73;1956105;97;25774;-81
2022/03/09 04:08:06;;;;;;;7.15;5.83;;;;;;;10.68;41.57;100617.38;1934463;102;26518;-82
2022/03/09 04:11:34;;;;;;;9.08;6.10;;;;;;;10.68;41.55;100624.31;1962216;99;25769;-82
2022/03/09 04:15:08;;;;;;;7.30;6.03;;;;;;;10.67;41.58;100624.74;1963885;99;26256;-83
2022/03/09 04:18:39;;;;;;;6.85;6.15;;;;;;;10.67;41.57;100619.95;1961588;99;25940;-81
2022/03/09 04:22:15;;;;;;;9.10;6.20;;;;;;;10.67;41.59;100623.44;1925473;100;26090;-81
2022/03/09 04:25:46;;;;;;;9.68;6.55;;;;;;;10.66;41.61;100630.78;1990265;97;26111;-81
2022/03/09 04:29:22;;;;;;;7.33;5.90;;;;;;;10.66;41.61;100624.26;1988086;97;25763;-81
2022/03/09 04:32:58;;;;;;;8.55;6.33;;;;;;;10.65;41.60;100625.11;2003267;97;26284;-81
2022/03/09 04:40:16;;;;;;;;;;;;;;;;;;;;;
2022/03/09 04:43:58;;;;;;;;;;;;;;;;;;;;;
2022/03/09 04:47:25;;;;;;;9.15;5.85;;;;;;;10.64;41.76;100619.45;1945050;100;25928;-81
2022/03/09 04:50:48;;;;;;;8.50;5.63;;;;;;;10.63;41.66;100610.75;1956602;99;25832;-81
2022/03/09 04:54:09;;;;;;;7.28;6.20;;;;;;;10.63;41.67;100613.74;1966960;99;25723;-81
2022/03/09 04:57:46;;;;;;;13.20;6.57;;;;;;;10.62;41.69;100608.08;1987445;98;29290;-80
2022/03/09 05:01:38;;;;;;;10.28;6.40;;;;;;;10.62;41.70;100625.02;1934733;101;25748;-80
2022/03/09 05:05:20;;;;;;;8.60;6.28;;;;;;;10.60;41.72;100624.12;1935506;102;26605;-82
2022/03/09 05:08:41;;;;;;;6.53;5.83;;;;;;;10.60;41.72;100629.33;1905557;100;26236;-81
2022/03/09 05:12:13;;;;;;;8.20;5.58;;;;;;;10.59;41.72;100636.67;1898892;103;25808;-81
2022/03/09 05:19:18;;;;;;;8.23;6.80;;;;;;;10.58;41.75;100644.03;1852277;104;25864;-81
2022/03/09 05:23:02;;;;;;;10.55;6.17;;;;;;;10.59;41.73;100654.49;1849252;104;26049;-81
2022/03/09 05:26:31;;;;;;;8.28;6.60;;;;;;;10.59;41.72;100667.95;1786739;107;25917;-82
2022/03/09 05:30:09;;;;;;;8.53;6.87;;;;;;;10.58;41.75;100661.86;1826872;106;25910;-81
2022/03/09 05:33:40;;;;;;;9.63;6.75;;;;;;;10.59;41.76;100669.26;1791915;107;25958;-82
2022/03/09 05:37:19;;;;;;;8.30;6.12;;;;;;;10.60;41.72;100669.75;1810476;107;26124;-82
2022/03/09 05:40:53;;;;;;;9.60;6.77;;;;;;;10.59;41.76;100673.17;1827017;106;25938;-82
2022/03/09 05:49:51;;;;;;;;;;;;;;;;;;;;;
2022/03/09 05:53:50;;;;;;;8.95;6.92;;;;;;;10.62;41.74;100687.59;;;;
2022/03/09 06:15:30;;;;;;;14.23;6.53;;;;;;;10.64;41.77;100689.84;1769528;107;25781;-81
2022/03/09 06:19:15;;;;;;;13.08;6.90;;;;;;;10.67;41.76;100689.93;;;;
2022/03/09 06:33:40;;;;;;;;;;;;;;;;;;;;;
2022/03/09 06:38:15;;;;;;;16.73;7.65;;;;;;;10.83;41.68;100704.26;1790253;104;25911;-81
2022/03/09 06:41:46;;;;;;;9.80;6.78;;;;;;;10.85;41.70;100703.47;1832846;107;25855;-81
2022/03/09 06:45:30;;;;;;;11.10;6.62;;;;;;;10.89;41.67;100710.95;1760506;108;25841;-81
2022/03/09 06:54:09;;;;;;;11.88;7.15;;;;;;;11.01;41.61;100713.03;1779699;109;25871;-81
2022/03/09 06:57:31;;;;;;;11.93;7.35;;;;;;;11.10;41.58;100706.73;1767474;111;26133;-81
2022/03/09 07:01:03;;;;;;;10.00;6.65;;;;;;;11.23;42.12;100707.94;1785026;109;26159;-81
2022/03/09 07:04:40;;;;;;;11.68;6.92;;;;;;;11.39;41.83;100710.53;1776266;110;25960;-82
2022/03/09 07:08:14;;;;;;;;;;;;;;;11.53;41.85;100703.92;1781862;109;25817;-82
2022/03/09 07:11:47;;;;;;;9.23;7.30;;;;;;;11.63;41.76;100707.22;1780487;109;25773;-82
2022/03/09 07:15:11;;;;;;;7.87;6.10;;;;;;;11.76;41.70;100710.59;1819756;105;25987;-81
2022/03/09 07:18:49;;;;;;;10.23;6.72;;;;;;;12.00;41.42;100700.30;1847767;104;25948;-81
2022/03/09 07:22:16;;;;;;;10.50;6.87;;;;;;;12.22;41.18;100706.91;1858929;104;26567;-81
2022/03/09 07:26:04;;;;;;;;;;;;;;;;;;;;;
2022/03/09 07:33:10;;;;;;;9.35;6.90;;;;;;;12.45;40.67;100698.22;1753038;111;25676;-81
2022/03/09 07:36:48;;;;;;;;;;;;;;;12.54;40.59;100687.95;1754180;111;26182;-81
2022/03/09 07:40:09;;;;;;;;;;;;;;;12.65;40.43;100687.73;1753521;111;25831;-81
2022/03/09 07:43:39;;;;;;;8.88;6.28;;;;;;;12.72;40.42;100680.50;1768874;110;25391;-82
2022/03/09 07:47:12;;;;;;;7.30;5.85;;;;;;;12.82;40.29;100683.27;1748669;108;25963;-81
2022/03/09 07:50:57;;;;;;;9.15;7.20;;;;;;;12.96;40.28;100680.08;1844402;104;26066;-81
2022/03/09 07:54:13;;;;;;;9.28;5.85;;;;;;;13.12;40.13;100679.91;1840338;105;25788;-81
2022/03/09 07:57:59;;;;;;;9.03;6.08;;;;;;;13.28;39.95;100674.99;1820686;104;25935;-79
2022/03/09 08:01:34;;;;;;;;;;;;;;;;;;;;;
2022/03/09 08:05:03;;;;;;;9.20;6.53;;;;;;;13.51;39.61;100670.14;1782238;108;26061;-81
2022/03/09 08:12:33;;;;;;;;;;;;;;;;;;;;;
2022/03/09 08:16:03;;;;;;;9.63;5.80;;;;;;;13.80;39.23;100677.13;1774158;109;25903;-81
2022/03/09 08:19:45;;;;;;;7.28;5.30;;;;;;;13.85;39.16;100676.35;1766620;111;25845;-79
2022/03/09 08:23:13;;;;;;;6.72;5.20;;;;;;;13.99;39.11;100684.85;1759171;110;26063;-81
2022/03/09 08:26:43;;;;;;;6.33;5.25;;;;;;;14.09;38.94;100681.50;1771976;111;26019;-81
2022/03/09 08:30:15;;;;;;;6.92;5.87;;;;;;;14.16;38.84;100682.91;1755324;112;26208;-79
2022/03/09 08:37:12;;;;;;;6.58;4.37;;;;;;;14.33;38.58;100684.88;1687527;117;26454;-78
2022/03/09 08:40:45;;;;;;;6.90;4.15;;;;;;;14.39;38.50;100681.03;1721208;113;26195;-82
2022/03/09 08:44:24;;;;;;;;;;;;;;;;;;;;;
2022/03/09 08:47:57;;;;;;;5.05;4.55;;;;;;;14.53;38.46;100682.11;1733290;112;25831;-81
2022/03/09 08:51:32;;;;;;;6.08;4.00;;;;;;;14.65;38.36;100694.52;1774214;110;25913;-81
2022/03/09 08:55:06;;;;;;;7.10;4.10;;;;;;;14.79;38.26;100698.61;1784623;108;25923;-81
2022/03/09 08:58:42;;;;;;;8.65;4.60;;;;;;;14.96;38.16;100699.67;1798432;109;25411;-81
2022/03/09 09:02:29;;;;;;;5.58;3.60;;;;;;;15.17;37.67;100694.20;1807224;108;25892;-80
2022/03/09 09:06:02;;;;;;;4.40;3.58;;;;;;;15.17;37.67;100694.20;1815581;106;26314;-81
2022/03/09 09:09:38;;;;;;;6.90;3.77;;;;;;;15.23;38.00;100697.77;1811036;103;25932;-81
2022/03/09 09:13:09;;;;;;;6.03;3.60;;;;;;;15.27;37.89;100696.05;1817465;104;25889;-85
2022/03/09 09:17:01;;;;;;;4.37;3.72;;;;;;;15.32;37.89;100693.92;1817084;107;25867;-82
2022/03/09 09:20:31;;;;;;;3.65;3.20;;;;;;;15.41;37.91;100703.61;1816878;107;26091;-81
2022/03/09 09:27:44;;;;;;;4.90;3.47;;;;;;;15.58;37.65;100694.56;1698334;115;25874;-81
2022/03/09 09:31:30;;;;;;;;;;;;;;;;;;;;;
2022/03/09 09:34:58;;;;;;;4.08;3.08;;;;;;;15.85;37.57;100690.42;1602008;118;26174;-81
2022/03/09 09:38:50;;;;;;;3.30;2.62;;;;;;;15.95;37.48;100690.48;1649535;118;26016;-82
2022/03/09 09:42:30;;;;;;;2.95;2.50;;;;;;;16.05;37.36;100698.88;1649612;116;25751;-81
2022/03/09 09:45:57;;;;;;;4.40;2.25;;;;;;;16.11;37.34;100699.36;1678157;115;26076;-81
2022/03/09 09:49:38;;;;;;;4.17;2.75;;;;;;;16.14;37.47;100705.08;1700358;115;26588;-82
2022/03/09 09:53:03;;;;;;;6.22;2.55;;;;;;;16.14;37.33;100707.71;1713912;115;31012;-82
2022/03/09 09:56:45;;;;;;;3.12;2.37;;;;;;;16.22;37.34;100708.63;1761035;105;25947;-82
2022/03/09 10:00:12;;;;;;;5.05;2.27;;;;;;;16.46;39.27;100711.81;1761794;112;26348;-82
2022/03/09 10:03:45;;;;;;;3.37;1.85;;;;;;;16.80;39.96;100711.55;1769237;110;26155;-82
2022/03/09 10:07:23;;;;;;;4.35;2.02;;;;;;;17.13;40.47;100713.84;1781840;110;25752;-82
2022/03/09 10:10:56;;;;;;;2.85;1.98;;;;;;;17.43;40.26;100716.97;1781610;110;25841;-83
2022/03/09 10:15:06;;;;;;;5.22;2.25;;;;;;;17.68;39.93;100710.83;1759029;110;26097;-86
2022/03/09 10:19:06;;;;;;;3.83;2.40;;;;;;;17.97;39.54;100713.91;1759248;110;25978;-83
2022/03/09 10:26:23;;;;;;;3.27;2.02;;;;;;;18.18;38.86;100719.58;1743400;112;25913;-82
2022/03/09 10:30:16;;;;;;;9.18;3.15;;;;;;;18.19;39.20;100721.36;1701387;114;26017;-81
2022/03/09 10:37:17;;;;;;;8.83;2.35;;;;;;;18.10;39.40;100719.60;1646094;117;25866;-82
2022/03/09 10:41:11;;;;;;;;;;;;;;;;;;;;;
2022/03/09 10:44:53;;;;;;;8.37;2.40;;;;;;;18.04;40.05;100721.37;1635591;119;26000;-82
2022/03/09 10:48:44;;;;;;;4.00;2.67;;;;;;;18.04;40.39;100721.37;1634733;119;26017;-84
2022/03/09 10:53:12;;;;;;;5.67;2.42;;;;;;;18.02;40.48;100723.12;1620548;119;26003;-81
2022/03/09 10:55:59;;;;;;;6.37;2.33;;;;;;;17.91;39.94;100716.55;1620059;116;25855;-80
2022/03/09 11:02:51;;;;;;;38.63;4.80;;;;;;;17.41;38.48;100711.70;1619728;120;25984;-81
2022/03/09 11:06:21;;;;;;;81.97;6.60;;;;;;;17.23;37.93;100709.91;1606423;120;26623;-81
2022/03/09 11:13:44;;;;;;;102.62;8.88;;;;;;;16.94;37.08;100703.28;1608125;121;25915;-81
2022/03/09 11:17:32;;;;;;;;;;;;;;;;;;;;;
2022/03/09 11:21:19;;;;;;;107.80;10.72;;;;;;;16.73;36.79;100710.61;1665409;117;26025;-85
2022/03/09 11:25:00;;;;;;;84.92;9.25;;;;;;;16.70;36.58;100712.35;1715079;113;26083;-81
2022/03/09 11:29:20;;;;;;;71.97;8.50;;;;;;;16.69;36.33;100704.02;1738032;113;26092;-82
2022/03/09 11:33:07;;;;;;;;;;;;;;;;;;;;;
2022/03/09 11:49:23;;;;;;;132.47;11.18;;;;;;;16.28;35.61;100728.39;1714778;115;25920;-83
2022/03/09 12:04:15;;;;;;;;;;;;;;;;;;;;;
2022/03/09 12:08:08;;;;;;;192.43;18.05;;;;;;;15.86;36.01;100737.73;1757082;110;26393;-83
2022/03/09 12:11:39;;;;;;;183.87;18.20;;;;;;;15.80;36.30;100736.41;1771434;107;25961;-83
2022/03/09 12:15:36;;;;;;;294.02;30.97;;;;;;;15.82;36.10;100735.96;1773268;109;26125;-81
2022/03/09 12:19:07;;;;;;;199.10;20.12;;;;;;;15.84;37.05;100744.75;1797638;108;26356;-83
2022/03/09 12:23:01;;;;;;;130.27;14.35;;;;;;;15.99;37.38;100746.16;1814629;107;25872;-82
2022/03/09 12:27:04;;;;;;;87.02;11.57;;;;;;;15.93;37.01;100751.41;1900870;102;25900;-82
2022/03/09 12:30:45;;;;;;;69.92;9.25;;;;;;;15.81;36.83;100761.81;1900253;102;26066;-82
2022/03/09 12:34:39;;;;;;;51.77;7.45;;;;;;;15.72;36.57;100759.09;1869256;103;25871;-82
2022/03/09 12:38:14;;;;;;;38.85;7.35;;;;;;;15.57;36.55;100760.70;1831433;103;26029;-82
2022/03/09 12:42:01;;;;;;;57.10;7.97;;;;;;;15.45;36.48;100761.88;1851457;104;25794;-82
2022/03/09 12:45:26;;;;;;;27.27;4.62;;;;;;;15.34;36.32;100762.22;1802454;107;25942;-82
2022/03/09 12:49:20;;;;;;;24.95;4.97;;;;;;;15.25;36.22;100760.36;1801005;107;25829;-83
2022/03/09 12:52:57;;;;;;;;;;;;;;;;;;;;;
2022/03/09 12:56:49;;;;;;;;;;;;;;;;;;;;;
2022/03/09 13:10:56;;;;;;;35.92;4.95;;;;;;;14.86;36.48;100776.13;1718751;114;25461;-81
2022/03/09 13:14:41;;;;;;;;;;;;;;;;;;;;;
2022/03/09 13:18:11;;;;;;;19.07;3.52;;;;;;;15.29;39.22;100796.77;1717706;113;26103;-81
2022/03/09 13:21:52;;;;;;;10.40;3.10;;;;;;;15.44;39.23;100789.03;1724839;111;25870;-82
2022/03/09 13:25:45;;;;;;;13.72;3.02;;;;;;;15.59;38.94;100781.31;1752808;108;26224;-82
2022/03/09 13:29:25;;;;;;;8.18;2.87;;;;;;;15.59;38.94;100781.31;1845500;104;25909;-82
2022/03/09 13:32:53;;;;;;;8.23;2.27;;;;;;;15.65;39.01;100785.73;1809536;107;26031;-81
2022/03/09 13:36:40;;;;;;;;;;;;;;;;;;;;;
2022/03/09 13:45:25;;;;;;;6.30;2.80;;;;;;;15.74;38.82;100779.72;1752181;111;25926;-82
2022/03/09 13:49:17;;;;;;;7.78;3.40;;;;;;;15.76;38.74;100782.81;1744977;111;26179;-82
2022/03/09 13:52:46;;;;;;;11.17;2.53;;;;;;;15.70;38.79;100780.13;1731239;112;25893;-81
2022/03/09 13:56:29;;;;;;;7.80;2.60;;;;;;;15.62;38.86;100780.44;1708537;115;25968;-79
2022/03/09 14:00:25;;;;;;;4.37;2.55;;;;;;;15.47;38.96;100769.36;1705941;108;25923;-81
2022/03/09 14:04:11;;;;;;;5.83;2.60;;;;;;;15.45;39.08;100783.34;1719262;112;26296;-80
2022/03/09 14:07:45;;;;;;;3.27;2.05;;;;;;;15.34;38.97;100777.55;1752572;111;25872;-80
2022/03/09 14:11:29;;;;;;;5.60;2.05;;;;;;;15.25;38.71;100783.13;1755965;108;26659;-80
2022/03/09 14:14:44;;;;;;;4.22;2.27;;;;;;;15.14;38.86;100785.64;1757612;111;26257;-79
2022/03/09 14:21:55;;;;;;;5.00;2.55;;;;;;;14.96;38.80;100795.50;1665347;118;25872;-76
2022/03/09 14:25:36;;;;;;;3.90;2.08;;;;;;;14.86;38.93;100805.00;1653392;113;26015;-76
2022/03/09 14:29:23;;;;;;;5.50;2.12;;;;;;;14.78;38.75;100810.59;1660365;117;26125;-74
2022/03/09 14:32:59;;;;;;;6.25;2.60;;;;;;;14.68;39.00;100816.59;1664572;117;26080;-78
2022/03/09 14:36:45;;;;;;;4.17;2.30;;;;;;;14.58;39.13;100816.88;1605837;120;45096;-79
2022/03/09 14:40:15;;;;;;;6.95;2.35;;;;;;;14.62;39.17;100816.06;1624220;120;26008;-77
2022/03/09 14:43:42;;;;;;;5.20;1.97;;;;;;;14.59;39.20;100821.27;1667316;117;25453;-78
2022/03/09 14:47:13;;;;;;;2.50;1.77;;;;;;;14.50;39.31;100826.37;1618566;120;26038;-75
2022/03/09 14:50:58;;;;;;;3.55;2.37;;;;;;;14.41;39.46;100827.53;1711618;114;26412;-78
2022/03/09 14:54:43;;;;;;;4.97;2.42;;;;;;;14.30;39.53;100828.66;1721630;110;26140;-76
2022/03/09 14:58:23;;;;;;;4.22;2.62;;;;;;;14.07;39.69;100818.23;1765081;109;25988;-76
2022/03/09 15:01:58;;;;;;;4.80;2.52;;;;;;;14.06;39.72;100842.69;1820749;107;25862;-82
2022/03/09 15:05:30;;;;;;;6.60;2.45;;;;;;;13.95;39.93;100846.45;1821066;108;34926;-75
2022/03/09 15:09:09;;;;;;;5.50;2.72;;;;;;;13.83;40.12;100843.59;1820723;107;25841;-80
2022/03/09 15:12:31;;;;;;;5.47;3.60;;;;;;;13.74;40.28;100852.62;1857028;104;26121;-79
2022/03/09 15:15:59;;;;;;;7.22;3.58;;;;;;;13.65;40.47;100861.19;1867982;104;25850;-79
2022/03/09 15:19:24;;;;;;;10.15;3.20;;;;;;;13.56;40.70;100861.88;1939464;100;25852;-76
2022/03/09 15:23:03;;;;;;;6.58;3.30;;;;;;;13.49;40.86;100872.22;1954266;101;25854;-78
2022/03/09 15:26:27;;;;;;;7.03;3.08;;;;;;;13.39;41.25;100873.34;1950983;100;25928;-78
2022/03/09 15:30:04;;;;;;;4.00;3.45;;;;;;;13.31;41.57;100874.06;1941790;100;25881;-78
2022/03/09 15:33:40;;;;;;;4.08;3.00;;;;;;;13.21;41.78;100886.92;1860798;104;25885;-77
2022/03/09 15:37:27;;;;;;;;;;;;;;;;;;;;;
2022/03/09 15:40:56;;;;;;;3.72;2.80;;;;;;;13.02;42.15;100893.91;1858490;103;25837;-78
2022/03/09 15:44:37;;;;;;;3.77;3.02;;;;;;;12.93;42.41;100905.52;1809852;104;26028;-78
2022/03/09 15:48:12;;;;;;;5.35;3.55;;;;;;;12.85;42.54;100912.28;1805960;105;26022;-82
2022/03/09 15:51:59;;;;;;;4.75;3.30;;;;;;;12.77;42.68;100908.20;1901429;103;25896;-79
2022/03/09 15:55:42;;;;;;;;;;;;;;;;;;;;;
2022/03/09 15:59:07;;;;;;;4.12;3.55;;;;;;;12.61;42.94;100906.94;1907927;100;25846;-79
2022/03/09 16:02:31;;;;;;;4.65;3.80;;;;;;;12.53;43.05;100910.70;1909321;101;25822;-79
2022/03/09 16:06:09;;;;;;;6.50;4.20;;;;;;;12.47;43.15;100916.20;1909022;101;25667;-81
2022/03/09 16:09:46;;;;;;;5.40;4.40;;;;;;;12.41;43.25;100923.89;1883218;103;25837;-79
2022/03/09 16:13:32;;;;;;;4.20;3.80;;;;;;;12.34;43.32;100927.20;1882018;99;25952;-80
2022/03/09 16:17:07;;;;;;;4.17;3.83;;;;;;;12.26;43.43;100934.42;1882731;103;26558;-78
2022/03/09 16:20:41;;;;;;;7.22;3.95;;;;;;;12.21;43.50;100942.56;1883140;103;25512;-78
2022/03/09 16:24:06;;;;;;;4.40;4.00;;;;;;;12.16;43.53;100942.88;1901776;103;26076;-79
2022/03/09 16:27:40;;;;;;;4.97;4.00;;;;;;;12.13;43.60;100954.98;1912559;101;25877;-78
2022/03/09 16:31:06;;;;;;;4.55;4.15;;;;;;;12.07;43.56;100954.82;1844446;102;25918;-78
2022/03/09 16:34:29;;;;;;;12.45;4.47;;;;;;;12.02;44.44;100956.89;1857790;103;25832;-80
2022/03/09 16:38:15;;;;;;;6.93;5.27;;;;;;;12.15;46.58;100952.88;2014208;95;29152;-79
2022/03/09 16:41:52;;;;;;;6.37;5.08;;;;;;;12.39;48.12;100956.98;2030687;95;25967;-81
2022/03/09 16:52:34;;;;;;;5.65;5.10;;;;;;;12.18;47.78;100976.49;1875827;102;26612;-76
2022/03/09 16:55:53;;;;;;;6.08;5.53;;;;;;;12.11;47.56;100982.80;1859146;103;25973;-77
2022/03/09 16:59:24;;;;;;;10.43;6.20;;;;;;;12.04;47.31;100996.13;1832785;107;25875;-76
2022/03/09 17:02:52;;;;;;;6.15;5.47;;;;;;;11.97;47.06;100998.11;1880833;102;25749;-77
2022/03/09 17:06:25;;;;;;;6.10;5.55;;;;;;;11.90;46.83;100993.55;1867484;103;25969;-76
2022/03/09 17:13:31;;;;;;;;;;;;;;;;;;;;;
2022/03/09 17:17:04;;;;;;;7.75;5.60;;;;;;;11.82;46.40;101007.26;1844706;104;25905;-77
2022/03/09 17:20:44;;;;;;;6.00;5.40;;;;;;;11.82;46.29;101012.48;1921564;101;25967;-75
2022/03/09 17:24:12;;;;;;;5.20;4.70;;;;;;;11.80;46.19;101015.45;1961300;98;25819;-78
2022/03/09 17:27:49;;;;;;;6.62;5.33;;;;;;;11.78;46.08;101018.47;1956681;97;25934;-79
2022/03/09 17:31:24;;;;;;;6.45;4.87;;;;;;;11.77;45.96;101027.55;1959193;97;25385;-83
2022/03/09 17:34:48;;;;;;;6.50;5.75;;;;;;;11.81;47.61;101037.24;1920621;102;25567;-78
2022/03/09 17:38:13;;;;;;;5.70;5.20;;;;;;;11.88;47.41;101043.17;1933174;101;25797;-79
2022/03/09 17:41:37;;;;;;;5.60;5.10;;;;;;;11.87;47.43;101043.11;1933588;102;25838;-79
2022/03/09 17:45:04;;;;;;;6.62;6.00;;;;;;;11.84;47.36;101050.42;2044289;95;25925;-78
2022/03/09 17:48:38;;;;;;;;;;;;;;;11.82;47.22;101049.06;2073042;94;25801;-78
2022/03/09 17:52:15;;;;;;;6.37;5.22;;;;;;;11.78;47.09;101055.05;2008302;96;25893;-78
2022/03/09 17:55:52;;;;;;;6.75;6.15;;;;;;;11.72;46.93;101061.39;1983263;98;26577;-79
2022/03/09 17:59:32;;;;;;;6.25;5.65;;;;;;;11.69;46.77;101062.59;1995375;97;25990;-76
2022/03/09 18:03:01;;;;;;;6.42;5.00;;;;;;;11.66;46.62;101073.38;1951639;99;25980;-77
2022/03/09 18:06:42;;;;;;;6.28;5.62;;;;;;;11.61;46.52;101078.47;1985411;97;25382;-77
2022/03/09 18:10:24;;;;;;;;;;;;;;;;;;;;;
2022/03/09 18:13:53;;;;;;;6.47;5.87;;;;;;;11.54;46.37;101088.23;1985740;96;25958;-78
2022/03/09 18:21:01;;;;;;;6.92;6.33;;;;;;;11.49;46.18;101102.89;1949336;99;25807;-79
2022/03/09 18:24:28;;;;;;;7.95;7.12;;;;;;;11.47;46.08;101108.05;1949612;100;26113;-79
2022/03/09 18:27:51;;;;;;;7.08;6.30;;;;;;;11.45;45.98;101115.39;1946957;99;25924;-78
2022/03/09 18:31:23;;;;;;;7.62;6.95;;;;;;;11.40;45.86;101112.61;1951122;98;26032;-78
2022/03/09 18:34:50;;;;;;;6.83;6.17;;;;;;;11.40;45.79;101127.39;2012809;96;25824;-78
2022/03/09 18:38:13;;;;;;;6.85;6.25;;;;;;;11.35;45.70;101115.08;2009471;97;26064;-77
2022/03/09 18:41:39;;;;;;;8.03;6.78;;;;;;;11.33;45.57;101132.83;1971198;99;26681;-78
2022/03/09 18:45:00;;;;;;;6.65;6.05;;;;;;;11.31;45.51;101140.62;1985178;96;26176;-79
2022/03/09 18:48:21;;;;;;;7.10;6.40;;;;;;;11.28;45.46;101147.05;1989359;99;30132;-75
2022/03/09 18:51:47;;;;;;;7.25;6.55;;;;;;;11.26;45.37;101153.05;2052262;93;26631;-76
2022/03/09 18:55:10;;;;;;;7.10;6.40;;;;;;;11.22;45.33;101162.50;2043343;96;25922;-79
2022/03/09 18:58:32;;;;;;;5.33;4.87;;;;;;;11.18;45.30;101164.55;2103194;93;25798;-79
2022/03/09 19:02:01;;;;;;;5.85;5.25;;;;;;;11.17;45.26;101169.70;2092612;93;25812;-78
2022/03/09 19:05:27;;;;;;;6.97;6.00;;;;;;;11.21;45.79;101176.83;2089599;91;25808;-78
2022/03/09 19:08:47;;;;;;;6.67;6.07;;;;;;;11.20;45.81;101180.25;2090096;93;31041;-77
2022/03/09 19:12:15;;;;;;;5.60;5.10;;;;;;;11.17;45.78;101188.89;2112190;93;29097;-78
2022/03/09 19:15:57;;;;;;;5.97;5.47;;;;;;;11.16;45.74;101188.81;2110153;93;25822;-77
2022/03/09 19:19:22;;;;;;;6.22;5.70;;;;;;;11.14;45.61;101196.61;2057703;95;26438;-77
2022/03/09 19:22:47;;;;;;;6.22;5.72;;;;;;;11.11;45.52;101201.72;2063357;94;25868;-78
2022/03/09 19:26:08;;;;;;;6.80;5.85;;;;;;;11.08;45.47;101201.61;1959520;98;25964;-79
2022/03/09 19:29:33;;;;;;;5.58;4.87;;;;;;;11.04;45.44;101203.23;1955598;95;30660;-78
2022/03/09 19:32:57;;;;;;;6.05;5.45;;;;;;;11.01;45.42;101207.45;1993725;97;25645;-79
2022/03/09 19:36:29;;;;;;;5.92;5.42;;;;;;;11.00;45.39;101220.92;1994798;98;25414;-77
2022/03/09 19:40:08;;;;;;;;;;;;;;;;;;;;;
2022/03/09 19:43:33;;;;;;;5.45;5.00;;;;;;;10.96;45.35;101221.62;1906967;101;26130;-81
2022/03/09 19:47:09;;;;;;;5.53;5.03;;;;;;;10.95;45.27;101230.30;1886466;104;25938;-81
2022/03/09 19:50:36;;;;;;;5.08;4.40;;;;;;;10.94;45.24;101230.25;1829884;105;33520;-78
2022/03/09 19:54:03;;;;;;;5.62;5.05;;;;;;;10.91;45.18;101232.75;1851393;105;25967;-78
2022/03/09 19:57:33;;;;;;;6.08;5.40;;;;;;;10.90;45.17;101242.69;1871982;103;25930;-77
2022/03/09 20:04:34;;;;;;;5.87;5.37;;;;;;;10.84;45.04;101248.17;1800548;109;25897;-79
2022/03/09 20:08:03;;;;;;;6.85;6.15;;;;;;;10.81;45.01;101252.39;1802235;108;25843;-82
2022/03/09 20:11:27;;;;;;;6.45;5.90;;;;;;;10.78;44.99;101250.97;1801156;108;25417;-75
2022/03/09 20:15:04;;;;;;;5.95;4.90;;;;;;;10.76;44.91;101269.16;1822900;106;26050;-80
2022/03/09 20:18:46;;;;;;;6.80;5.95;;;;;;;10.73;44.79;101270.38;1840092;105;26522;-82
2022/03/09 20:22:08;;;;;;;6.35;5.83;;;;;;;10.70;44.76;101275.48;1888707;100;25919;-76
2022/03/09 20:25:37;;;;;;;6.42;5.30;;;;;;;10.67;44.67;101281.88;1905201;100;26106;-83
2022/03/09 20:29:02;;;;;;;4.87;4.37;;;;;;;10.63;44.64;101286.09;1881075;103;25808;-84
2022/03/09 20:32:29;;;;;;;5.30;4.90;;;;;;;10.60;44.60;101289.89;1934101;100;26049;-86
2022/03/09 20:35:52;;;;;;;7.62;5.25;;;;;;;10.59;44.58;101295.91;1918549;102;26001;-81
2022/03/09 20:39:27;;;;;;;5.62;5.15;;;;;;;10.58;44.52;101304.99;1872737;97;25903;-85
2022/03/09 20:42:58;;;;;;;7.10;5.53;;;;;;;10.56;44.45;101309.25;1959616;99;25936;-78
2022/03/09 20:46:37;;;;;;;5.15;4.65;;;;;;;10.53;44.36;101310.43;2017039;96;25798;-76